Current | Forecast
Updated: 7:30 PM CEST on May 24, 2017
Observed at Reus, Spain
Temperature 25°C
Humidity 44%
Dew Point 12°C
Wind SSW at 15 km/h
Pressure 1018 hPa (Steady)
Conditions Clear
Visibility -
UV N/A
Clouds
Yesterday's Maximum 27°C
Yesterday's Minimum 14°C approx.
Yesterday's Cooling Degree Days 4 approx.
Sunrise6:30 AM CEST
Sunset9:18 PM CEST
Moon Rise5:48 AM CEST
Moon Set7:41 PM CEST
Moon PhaseMoon Phase
Waning Crescent
Raw METARMETAR LERS 241730Z 21008KT 170V250 CAVOK 25/12 Q1018


Monday
. High: 89° F.
Tuesday
. High: 87° F.
Wednesday
. High: 78° F.
Thursday
. High: 78° F.
Friday
. High: 78° F.
Saturday
. High: 87° F.
Sunday
. High: 84° F.
Monday
. High: 87° F.

Click here for Marine Information
Scientific forecaster discussion (NWS)

Units: English | Metric

Find the Weather for any City, State or Zipcode, or Country:

U.S. State List | Severe Weather | Tropical Storms | Ski Conditions
United States | Canada | Central America | South America | Asia | Europe | Australia | Africa | Islands

Weather Underground

© Copyright 2017
The Weather Company, LLC